Airport View

Enter AWOS ICAO identifier for current METAR.

ex. KFNL

KLIC 300455Z AUTO 01006KT 10SM CLR M01/M03 A3022 RMK AO2 SLP222 T10111033 $

30 Oct 2020 04:59

Frequency: 121.125

Phone: 719-775-0515

Other Area AWOS: KMNH - KFLY - KFTG - KCOS

TAF KCOS 292345Z 3000/3024 15006KT P6SM SKC FM300100 01005KT P6SM SKC FM301600 16007KT P6SM SKC